Time;durP1;ratioP1;P1;durP2;ratioP2;P2;SDS_P1;SDS_P2;PMS_P1;PMS_P2;Temp;Humidity;BMP_temperature;BMP_pressure;BME280_temperature;BME280_humidity;BME280_pressure;Samples;Min_cycle;Max_cycle;Signal;HPM_P1;HPM_P2
2023/12/11 00:01:39;;;;;;;;;;;;;;;13.02;81.30;99282.25;7295609;19;19925;-68
2023/12/11 00:04:06;;;;;;;;;;;;;;;12.96;80.83;99286.53;7292144;19;19995;-68
2023/12/11 00:06:33;;;;;;;;;;;;;;;12.96;81.82;99288.34;7286808;19;20001;-68
2023/12/11 00:09:00;;;;;;;;;;;;;;;13.00;81.82;99276.41;7298151;19;19980;-70
2023/12/11 00:11:34;;;;;;;;;;;;;;;12.94;81.27;99275.38;7295044;19;20089;-69
2023/12/11 00:14:00;;;;;;;;;;;;;;;12.96;81.33;99270.69;7282598;19;20367;-69
2023/12/11 00:16:27;;;;;;;;;;;;;;;12.92;81.37;99276.59;7289344;19;20131;-68
2023/12/11 00:18:54;;;;;;;;;;;;;;;12.91;82.24;99277.59;7294638;19;20657;-69
2023/12/11 00:21:22;;;;;;;;;;;;;;;12.93;82.91;99283.50;7295520;19;20451;-67
2023/12/11 00:23:50;;;;;;;;;;;;;;;12.91;82.57;99277.59;7290985;19;20305;-67
2023/12/11 00:26:17;;;;;;;;;;;;;;;12.89;83.01;99282.31;7300134;19;20244;-68
2023/12/11 00:28:47;;;;;;;;;;;;;;;12.89;83.58;99287.56;7282570;19;19929;-69
2023/12/11 00:31:14;;;;;;;;;;;;;;;12.91;83.51;99285.53;7299017;19;20257;-68
2023/12/11 00:33:44;;;;;;;;;;;;;;;12.90;83.49;99266.22;7287404;19;19933;-69
2023/12/11 00:36:11;;;;;;;;;;;;;;;12.93;83.83;99286.97;7291126;19;20181;-68
2023/12/11 00:38:38;;;;;;;;;;;;;;;12.87;83.55;99269.28;7286627;19;20296;-69
2023/12/11 00:41:06;;;;;;;;;;;;;;;12.83;83.67;99261.00;7288596;19;19917;-68
2023/12/11 00:43:37;;;;;;;;;;;;;;;12.88;84.51;99288.59;7286999;19;20639;-69
2023/12/11 00:46:15;;;;;;;;;;;;;;;12.87;83.94;99285.13;7284170;19;19923;-69
2023/12/11 00:48:42;;;;;;;;;;;;;;;12.88;83.35;99293.88;7273886;19;19922;-67
2023/12/11 00:51:26;;;;;;;;;;;;;;;12.92;84.63;99282.69;7280350;19;19926;-70
2023/12/11 00:53:52;;;;;;;;;;;;;;;12.91;84.16;99283.69;7292115;19;20501;-69
2023/12/11 00:56:19;;;;;;;;;;;;;;;12.92;83.17;99272.13;7299177;19;19922;-67
2023/12/11 00:58:46;;;;;;;;;;;;;;;12.93;82.99;99272.94;7294790;19;20164;-69
2023/12/11 01:01:13;;;;;;;;;;;;;;;12.94;83.98;99280.66;7292860;19;19998;-69
2023/12/11 01:03:41;;;;;;;;;;;;;;;12.96;83.40;99260.13;7275913;19;19929;-68
2023/12/11 01:06:08;;;;;;;;;;;;;;;12.96;82.87;99268.06;7277977;19;20388;-68
2023/12/11 01:08:38;;;;;;;;;;;;;;;12.99;82.86;99272.13;7282227;19;19934;-68
2023/12/11 01:11:06;;;;;;;;;;;;;;;13.02;82.92;99279.63;7285241;19;19915;-70
2023/12/11 01:13:34;;;;;;;;;;;;;;;13.01;82.14;99272.72;7285519;19;19926;-68
2023/12/11 01:16:01;;;;;;;;;;;;;;;13.00;81.00;99281.66;7282234;19;19919;-67
2023/12/11 01:18:28;;;;;;;;;;;;;;;13.01;81.29;99268.25;7296541;19;19929;-68
2023/12/11 01:20:55;;;;;;;;;;;;;;;13.02;82.80;99275.16;7280164;19;20208;-68
2023/12/11 01:23:22;;;;;;;;;;;;;;;13.03;80.68;99268.84;7280134;19;19926;-70
2023/12/11 01:25:49;;;;;;;;;;;;;;;13.01;81.29;99273.53;7300925;19;19929;-69
2023/12/11 01:28:17;;;;;;;;;;;;;;;13.00;81.32;99273.75;7283813;19;19922;-69
2023/12/11 01:30:44;;;;;;;;;;;;;;;12.99;81.78;99280.03;7291962;19;20326;-68
2023/12/11 01:33:11;;;;;;;;;;;;;;;12.95;81.69;99277.00;7288873;19;19922;-68
2023/12/11 01:35:38;;;;;;;;;;;;;;;12.90;81.31;99289.22;7292391;19;19937;-70
2023/12/11 01:38:05;;;;;;;;;;;;;;;12.90;81.80;99283.94;7298098;19;19935;-68
2023/12/11 01:40:32;;;;;;;;;;;;;;;12.88;81.54;99283.31;7301811;19;20302;-68
2023/12/11 01:43:15;;;;;;;;;;;;;;;12.88;81.83;99302.59;7289343;19;19985;-68
2023/12/11 01:45:46;;;;;;;;;;;;;;;12.89;82.55;99301.59;7296815;19;19922;-69
2023/12/11 01:48:13;;;;;;;;;;;;;;;12.90;81.92;99308.47;7292104;19;20217;-69
2023/12/11 01:50:40;;;;;;;;;;;;;;;12.91;83.54;99315.38;7274536;19;19927;-67
2023/12/11 01:53:08;;;;;;;;;;;;;;;12.92;82.84;99318.84;7301710;19;19911;-70
2023/12/11 01:55:36;;;;;;;;;;;;;;;12.92;82.79;99317.00;7302200;19;19928;-69
2023/12/11 01:58:03;;;;;;;;;;;;;;;12.97;84.49;99319.84;7295542;19;19927;-68
2023/12/11 02:00:30;;;;;;;;;;;;;;;13.02;84.30;99325.31;7304153;19;20423;-67
2023/12/11 02:02:57;;;;;;;;;;;;;;;13.01;82.62;99326.34;7285415;19;19986;-67
2023/12/11 02:05:24;;;;;;;;;;;;;;;13.01;82.82;99346.63;7277650;19;20184;-67
2023/12/11 02:07:50;;;;;;;;;;;;;;;12.99;83.14;99336.31;7288356;19;19933;-68
2023/12/11 02:10:17;;;;;;;;;;;;;;;12.98;82.86;99336.50;7287292;19;20384;-68
2023/12/11 02:12:44;;;;;;;;;;;;;;;12.95;82.25;99350.13;7284662;19;19922;-68
2023/12/11 02:15:11;;;;;;;;;;;;;;;12.95;82.42;99340.38;7296728;19;21784;-67
2023/12/11 02:17:38;;;;;;;;;;;;;;;12.89;81.80;99346.47;7297231;19;20937;-69
2023/12/11 02:20:05;;;;;;;;;;;;;;;12.88;82.30;99358.03;7291894;19;19922;-68
2023/12/11 02:22:32;;;;;;;;;;;;;;;12.84;82.51;99355.00;7289359;19;20384;-68
2023/12/11 02:25:03;;;;;;;;;;;;;;;12.83;82.72;99345.44;7281463;19;20277;-68
2023/12/11 02:27:30;;;;;;;;;;;;;;;12.84;83.90;99341.00;7298350;19;19922;-69
2023/12/11 02:29:57;;;;;;;;;;;;;;;12.86;82.69;99362.69;7283925;19;19922;-67
2023/12/11 02:32:24;;;;;;;;;;;;;;;12.79;82.18;99360.09;7294435;19;19939;-68
2023/12/11 02:34:51;;;;;;;;;;;;;;;12.80;82.90;99364.31;7285117;19;19927;-68
2023/12/11 02:37:18;;;;;;;;;;;;;;;12.80;82.71;99374.06;7278626;19;20411;-70
2023/12/11 02:39:45;;;;;;;;;;;;;;;12.76;82.02;99376.31;7275485;19;19914;-70
2023/12/11 02:42:12;;;;;;;;;;;;;;;12.76;83.08;99370.22;7288250;19;19922;-68
2023/12/11 02:44:39;;;;;;;;;;;;;;;12.76;83.00;99384.22;7288697;19;19914;-70
2023/12/11 02:47:06;;;;;;;;;;;;;;;12.74;83.78;99391.56;7294639;19;19922;-70
2023/12/11 02:49:33;;;;;;;;;;;;;;;12.75;83.42;99389.69;7302938;19;19925;-68
2023/12/11 02:52:10;;;;;;;;;;;;;;;12.75;83.51;99387.88;7287503;19;20574;-67
2023/12/11 02:54:37;;;;;;;;;;;;;;;12.74;83.35;99388.09;7290770;19;20540;-69
2023/12/11 02:57:03;;;;;;;;;;;;;;;12.71;83.88;99378.75;7296720;19;20190;-70
2023/12/11 02:59:30;;;;;;;;;;;;;;;12.72;84.50;99395.41;7294479;19;20547;-68
2023/12/11 03:01:57;;;;;;;;;;;;;;;12.69;84.25;99395.81;7293583;19;19939;-69
2023/12/11 03:04:24;;;;;;;;;;;;;;;12.68;83.72;99395.00;7293444;19;20292;-67
2023/12/11 03:06:52;;;;;;;;;;;;;;;12.66;83.32;99404.94;7294234;19;19982;-69
2023/12/11 03:09:19;;;;;;;;;;;;;;;12.62;83.75;99395.78;7283450;19;20645;-68
2023/12/11 03:11:45;;;;;;;;;;;;;;;12.63;84.63;99396.59;7296974;19;19926;-69
2023/12/11 03:14:12;;;;;;;;;;;;;;;12.61;84.04;99403.91;7315025;19;19918;-69
2023/12/11 03:16:39;;;;;;;;;;;;;;;12.59;84.01;99403.31;7311813;19;19982;-69
2023/12/11 03:19:06;;;;;;;;;;;;;;;12.58;83.99;99406.94;7316143;19;20127;-69
2023/12/11 03:21:33;;;;;;;;;;;;;;;12.56;83.81;99385.22;7314733;19;20966;-69
2023/12/11 03:24:00;;;;;;;;;;;;;;;12.54;83.93;99392.53;7307526;19;19915;-68
2023/12/11 03:26:27;;;;;;;;;;;;;;;12.53;84.03;99401.47;7288836;19;20082;-68
2023/12/11 03:28:53;;;;;;;;;;;;;;;12.54;84.73;99392.53;7290109;19;19969;-69
2023/12/11 03:31:20;;;;;;;;;;;;;;;12.51;83.64;99404.28;7286881;19;20371;-68
2023/12/11 03:33:47;;;;;;;;;;;;;;;12.48;83.84;99422.34;7294752;19;19915;-68
2023/12/11 03:36:14;;;;;;;;;;;;;;;12.47;84.45;99428.63;7292939;19;19933;-69
2023/12/11 03:38:41;;;;;;;;;;;;;;;12.42;84.08;99440.63;7313219;19;20002;-68
2023/12/11 03:41:08;;;;;;;;;;;;;;;12.37;84.51;99437.75;7286293;19;20029;-69
2023/12/11 03:43:35;;;;;;;;;;;;;;;12.37;84.46;99450.94;7298627;19;19915;-68
2023/12/11 03:46:03;;;;;;;;;;;;;;;12.33;84.48;99443.63;7292595;19;19930;-68
2023/12/11 03:48:30;;;;;;;;;;;;;;;12.32;84.82;99442.81;7296151;19;19973;-68
2023/12/11 03:50:57;;;;;;;;;;;;;;;12.33;85.11;99444.44;7288643;19;19926;-69
2023/12/11 03:53:24;;;;;;;;;;;;;;;12.33;85.80;99447.09;7290267;19;19990;-68
2023/12/11 03:55:52;;;;;;;;;;;;;;;12.34;85.83;99455.81;7287337;19;19915;-69
2023/12/11 03:58:19;;;;;;;;;;;;;;;12.32;85.23;99458.63;7290408;19;19923;-68
2023/12/11 04:00:46;;;;;;;;;;;;;;;12.33;85.96;99455.00;7298221;19;19927;-67
2023/12/11 04:03:14;;;;;;;;;;;;;;;12.32;85.72;99465.75;7298257;19;19919;-69
2023/12/11 04:05:41;;;;;;;;;;;;;;;12.29;85.86;99466.94;7287372;19;19918;-69
2023/12/11 04:08:08;;;;;;;;;;;;;;;12.28;85.82;99464.50;7282607;19;19919;-68
2023/12/11 04:10:35;;;;;;;;;;;;;;;12.27;86.00;99473.44;7282744;19;19952;-66
2023/12/11 04:13:02;;;;;;;;;;;;;;;12.27;85.92;99476.88;7277996;19;20364;-68
2023/12/11 04:15:29;;;;;;;;;;;;;;;12.26;85.75;99485.78;7300740;19;19915;-68
2023/12/11 04:17:56;;;;;;;;;;;;;;;12.26;86.86;99485.78;7301195;19;19942;-69
2023/12/11 04:20:23;;;;;;;;;;;;;;;12.26;86.87;99493.72;7305476;19;20435;-68
2023/12/11 04:22:50;;;;;;;;;;;;;;;12.26;87.27;99501.63;7293152;19;19923;-69
2023/12/11 04:25:17;;;;;;;;;;;;;;;12.26;87.18;99495.53;7303156;19;19922;-69
2023/12/11 04:27:44;;;;;;;;;;;;;;;12.21;86.42;99504.03;7288180;19;19926;-67
2023/12/11 04:30:11;;;;;;;;;;;;;;;12.21;86.53;99509.31;7288565;19;19922;-69
2023/12/11 04:32:38;;;;;;;;;;;;;;;12.21;86.70;99503.22;7306241;19;19922;-68
2023/12/11 04:35:05;;;;;;;;;;;;;;;12.20;86.72;99510.31;7291207;19;19953;-69
2023/12/11 04:37:32;;;;;;;;;;;;;;;12.19;86.60;99515.81;7285831;19;20422;-68
2023/12/11 04:39:59;;;;;;;;;;;;;;;12.20;86.84;99520.84;7288298;19;20019;-68
2023/12/11 04:42:26;;;;;;;;;;;;;;;12.19;86.54;99521.88;7284800;19;20831;-67
2023/12/11 04:44:54;;;;;;;;;;;;;;;12.21;86.17;99529.59;7283025;19;19919;-68
2023/12/11 04:47:23;;;;;;;;;;;;;;;12.23;86.45;99538.13;7288136;19;20247;-67
2023/12/11 04:49:50;;;;;;;;;;;;;;;12.23;86.09;99538.94;7287910;19;20172;-69
2023/12/11 04:52:17;;;;;;;;;;;;;;;12.27;86.19;99544.63;7303333;19;19923;-68
2023/12/11 04:54:44;;;;;;;;;;;;;;;12.29;85.83;99551.31;7285779;19;19911;-67
2023/12/11 04:57:11;;;;;;;;;;;;;;;12.32;86.31;99550.13;7296619;19;20001;-68
2023/12/11 04:59:38;;;;;;;;;;;;;;;12.34;86.68;99551.56;7296309;19;19925;-71
2023/12/11 05:02:09;;;;;;;;;;;;;;;12.35;85.77;99562.91;7279849;19;20580;-69
2023/12/11 05:04:36;;;;;;;;;;;;;;;12.37;85.00;99577.56;7281966;19;20376;-69
2023/12/11 05:07:03;;;;;;;;;;;;;;;12.38;85.11;99583.66;7277479;19;20478;-69
2023/12/11 05:09:30;;;;;;;;;;;;;;;12.38;85.17;99591.56;7274667;19;20258;-68
2023/12/11 05:12:00;;;;;;;;;;;;;;;12.39;84.92;99599.25;7275930;19;20530;-69
2023/12/11 05:14:27;;;;;;;;;;;;;;;12.40;85.34;99587.72;7283950;19;20501;-70
2023/12/11 05:16:54;;;;;;;;;;;;;;;12.39;85.21;99585.28;7283935;19;20383;-68
2023/12/11 05:19:20;;;;;;;;;;;;;;;12.41;85.78;99593.81;7294446;19;20264;-69
2023/12/11 05:21:47;;;;;;;;;;;;;;;12.37;84.65;99590.75;7282025;19;19915;-68
2023/12/11 05:24:14;;;;;;;;;;;;;;;12.35;85.11;99589.31;7302799;19;19918;-69
2023/12/11 05:26:41;;;;;;;;;;;;;;;12.33;85.42;99600.06;7285563;19;19924;-69
2023/12/11 05:29:08;;;;;;;;;;;;;;;12.35;85.36;99597.22;7290885;19;19944;-69
2023/12/11 05:31:35;;;;;;;;;;;;;;;12.35;85.52;99607.75;7309042;19;20612;-69
2023/12/11 05:34:02;;;;;;;;;;;;;;;12.35;85.85;99613.03;7314118;19;22148;-68
2023/12/11 05:36:29;;;;;;;;;;;;;;;12.35;85.74;99621.78;7284471;19;19927;-68
2023/12/11 05:38:56;;;;;;;;;;;;;;;12.39;86.11;99620.38;7314933;19;19950;-69
2023/12/11 05:41:23;;;;;;;;;;;;;;;12.43;85.12;99629.53;7282717;19;19919;-69
2023/12/11 05:43:49;;;;;;;;;;;;;;;12.47;85.78;99629.16;7301074;19;19925;-68
2023/12/11 05:46:16;;;;;;;;;;;;;;;12.51;85.35;99641.75;7297923;19;19929;-69
2023/12/11 05:48:43;;;;;;;;;;;;;;;12.57;85.27;99645.44;7282950;19;19941;-68
2023/12/11 05:51:10;;;;;;;;;;;;;;;12.58;85.14;99652.34;7294740;19;19930;-68
2023/12/11 05:53:37;;;;;;;;;;;;;;;12.62;85.36;99645.66;7284843;19;20320;-69
2023/12/11 05:56:05;;;;;;;;;;;;;;;12.64;85.40;99649.75;7283457;19;19911;-68
2023/12/11 05:58:31;;;;;;;;;;;;;;;12.68;85.11;99653.63;7279131;19;19952;-69
2023/12/11 06:00:58;;;;;;;;;;;;;;;12.72;85.49;99661.97;7285421;19;19915;-68
2023/12/11 06:03:25;;;;;;;;;;;;;;;12.73;85.01;99656.50;7287694;19;20532;-68
2023/12/11 06:05:57;;;;;;;;;;;;;;;12.76;84.84;99665.84;7280190;19;20545;-68
2023/12/11 06:08:25;;;;;;;;;;;;;;;12.73;83.95;99666.22;7289245;19;19915;-68
2023/12/11 06:10:52;;;;;;;;;;;;;;;12.74;83.89;99676.59;7277143;19;20599;-69
2023/12/11 06:13:19;;;;;;;;;;;;;;;12.76;84.28;99687.75;7288379;19;20406;-69
2023/12/11 06:15:46;;;;;;;;;;;;;;;12.73;83.77;99680.25;7282721;19;19923;-69
2023/12/11 06:18:13;;;;;;;;;;;;;;;12.72;84.14;99686.53;7282548;19;20383;-69
2023/12/11 06:20:40;;;;;;;;;;;;;;;12.74;83.88;99691.63;7285156;19;20019;-68
2023/12/11 06:23:06;;;;;;;;;;;;;;;12.74;84.12;99707.47;7288787;19;19915;-68
2023/12/11 06:25:33;;;;;;;;;;;;;;;12.72;84.40;99701.56;7297632;19;20264;-68
2023/12/11 06:28:00;;;;;;;;;;;;;;;12.71;84.10;99702.56;7292690;19;19919;-70
2023/12/11 06:30:27;;;;;;;;;;;;;;;12.69;84.02;99710.69;7280934;19;20490;-68
2023/12/11 06:32:54;;;;;;;;;;;;;;;12.68;84.30;99714.31;7294670;19;20981;-68
2023/12/11 06:35:21;;;;;;;;;;;;;;;12.65;85.51;99712.06;7285459;19;19956;-67
2023/12/11 06:37:48;;;;;;;;;;;;;;;12.63;85.00;99718.56;7279673;19;19998;-68
2023/12/11 06:40:15;;;;;;;;;;;;;;;12.61;85.21;99720.56;7290825;19;19915;-68
2023/12/11 06:42:42;;;;;;;;;;;;;;;12.61;85.36;99729.28;7293322;19;20421;-68
2023/12/11 06:45:10;;;;;;;;;;;;;;;12.61;85.40;99724.00;7290804;19;20456;-69
2023/12/11 06:47:37;;;;;;;;;;;;;;;12.61;85.32;99737.22;7289313;19;20279;-68
2023/12/11 06:50:04;;;;;;;;;;;;;;;12.58;84.71;99737.59;7319549;19;20006;-69
2023/12/11 06:52:31;;;;;;;;;;;;;;;12.55;84.90;99745.88;7315903;19;19933;-69
2023/12/11 06:54:59;;;;;;;;;;;;;;;12.49;85.81;99751.97;7301254;19;21319;-69
2023/12/11 06:57:28;;;;;;;;;;;;;;;12.49;86.31;99748.50;7295318;19;19922;-69
2023/12/11 06:59:55;;;;;;;;;;;;;;;12.46;85.68;99756.78;7284493;19;19917;-68
2023/12/11 07:02:22;;;;;;;;;;;;;;;12.43;85.53;99756.19;7306352;19;20217;-69
2023/12/11 07:04:53;;;;;;;;;;;;;;;12.41;85.73;99757.34;7299645;19;20337;-68
2023/12/11 07:07:20;;;;;;;;;;;;;;;12.39;85.78;99762.81;7289694;19;20034;-68
2023/12/11 07:09:47;;;;;;;;;;;;;;;12.36;85.45;99763.22;7300398;19;19930;-69
2023/12/11 07:12:14;;;;;;;;;;;;;;;12.31;85.23;99764.78;7287738;19;20614;-69
2023/12/11 07:14:43;;;;;;;;;;;;;;;12.30;85.21;99776.34;7300687;19;19927;-69
2023/12/11 07:17:10;;;;;;;;;;;;;;;12.29;85.67;99780.78;7312829;19;19922;-68
2023/12/11 07:19:37;;;;;;;;;;;;;;;12.30;85.85;99781.59;7313334;19;20595;-68
2023/12/11 07:22:14;;;;;;;;;;;;;;;12.26;86.13;99786.47;7283414;19;20481;-68
2023/12/11 07:24:44;;;;;;;;;;;;;;;12.26;86.61;99794.38;7296771;19;19940;-68
2023/12/11 07:27:14;;;;;;;;;;;;;;;12.28;87.29;99789.75;7314605;19;19919;-68
2023/12/11 07:29:45;;;;;;;;;;;;;;;12.29;86.65;99798.47;7295753;19;20478;-67
2023/12/11 07:32:19;;;;;;;;;;;;;;;12.29;86.20;99799.25;7296957;19;20240;-69
2023/12/11 07:34:47;;;;;;;;;;;;;;;12.33;86.55;99815.53;7310927;19;20232;-69
2023/12/11 07:37:14;;;;;;;;;;;;;;;12.32;86.96;99811.25;7298558;19;20448;-69
2023/12/11 07:39:41;;;;;;;;;;;;;;;12.34;86.19;99811.91;7302950;19;20056;-70
2023/12/11 07:42:08;;;;;;;;;;;;;;;12.36;85.92;99810.69;7291310;19;19919;-69
2023/12/11 07:44:35;;;;;;;;;;;;;;;12.37;86.31;99817.59;7280657;19;19968;-69
2023/12/11 07:47:02;;;;;;;;;;;;;;;12.40;86.63;99821.69;7296813;19;19919;-69
2023/12/11 07:49:29;;;;;;;;;;;;;;;12.37;86.55;99819.44;7295179;19;19915;-69
2023/12/11 07:51:56;;;;;;;;;;;;;;;12.38;86.33;99829.81;7290022;19;19927;-69
2023/12/11 07:54:23;;;;;;;;;;;;;;;12.38;85.44;99831.63;7295222;19;19951;-68
2023/12/11 07:56:50;;;;;;;;;;;;;;;12.39;85.59;99839.31;7289780;19;20763;-69
2023/12/11 07:59:17;;;;;;;;;;;;;;;12.36;85.82;99837.06;7292197;19;19923;-68
2023/12/11 08:01:45;;;;;;;;;;;;;;;12.36;85.52;99850.25;7294708;19;20234;-70
2023/12/11 08:04:14;;;;;;;;;;;;;;;12.36;85.39;99858.19;7318814;19;20363;-69
2023/12/11 08:06:42;;;;;;;;;;;;;;;12.33;85.63;99855.94;7318593;19;19922;-68
2023/12/11 08:09:09;;;;;;;;;;;;;;;12.29;85.35;99859.13;7320213;19;20058;-68
2023/12/11 08:11:36;;;;;;;;;;;;;;;12.26;85.38;99859.50;7317039;19;20459;-68
2023/12/11 08:14:02;;;;;;;;;;;;;;;12.22;85.74;99866.16;7295441;19;20795;-70
2023/12/11 08:16:29;;;;;;;;;;;;;;;12.23;85.65;99868.59;7286726;19;20393;-68
2023/12/11 08:18:56;;;;;;;;;;;;;;;12.21;85.61;99875.06;7288557;19;20693;-69
2023/12/11 08:21:23;;;;;;;;;;;;;;;12.25;86.49;99873.69;7296923;19;19986;-68
2023/12/11 08:23:51;;;;;;;;;;;;;;;12.25;86.37;99882.41;7283160;19;20676;-68
2023/12/11 08:26:18;;;;;;;;;;;;;;;12.24;86.36;99883.41;7279167;19;19923;-69
2023/12/11 08:28:48;;;;;;;;;;;;;;;12.23;86.40;99889.72;7275164;19;19929;-68
2023/12/11 08:31:17;;;;;;;;;;;;;;;12.20;86.12;99884.78;7266938;19;19931;-67
2023/12/11 08:33:44;;;;;;;;;;;;;;;12.23;87.29;99891.53;7285525;19;20534;-69
2023/12/11 08:36:11;;;;;;;;;;;;;;;12.20;86.38;99897.97;7285845;19;20565;-69
2023/12/11 08:38:38;;;;;;;;;;;;;;;12.20;86.08;99899.78;7315353;19;20141;-69
2023/12/11 08:41:05;;;;;;;;;;;;;;;12.17;85.62;99905.44;7293752;19;19937;-68
2023/12/11 08:43:32;;;;;;;;;;;;;;;12.16;86.26;99902.00;7294302;19;20251;-68
2023/12/11 08:45:58;;;;;;;;;;;;;;;12.15;86.22;99923.25;7293807;19;20360;-69
2023/12/11 08:48:25;;;;;;;;;;;;;;;12.12;86.40;99919.19;7284439;19;19951;-69
2023/12/11 08:50:54;;;;;;;;;;;;;;;12.12;86.63;99924.47;7278286;19;19922;-69
2023/12/11 08:53:21;;;;;;;;;;;;;;;12.12;85.45;99931.56;7304625;19;19930;-68
2023/12/11 08:55:51;;;;;;;;;;;;;;;12.14;85.61;99940.13;7300052;19;20595;-69
2023/12/11 08:58:18;;;;;;;;;;;;;;;12.18;85.70;99939.56;7291600;19;20935;-68
2023/12/11 09:00:45;;;;;;;;;;;;;;;12.25;85.80;99947.53;7292014;19;20545;-69
2023/12/11 09:03:12;;;;;;;;;;;;;;;12.30;85.11;99945.97;7286736;19;20919;-69
2023/12/11 09:05:39;;;;;;;;;;;;;;;12.36;84.08;99944.41;7296236;19;19915;-69
2023/12/11 09:08:06;;;;;;;;;;;;;;;12.37;84.07;99946.06;7283475;19;20758;-69
2023/12/11 09:10:34;;;;;;;;;;;;;;;12.43;83.78;99956.69;7288999;19;19945;-69
2023/12/11 09:13:01;;;;;;;;;;;;;;;12.48;83.99;99944.75;7296836;19;19918;-69
2023/12/11 09:15:28;;;;;;;;;;;;;;;12.50;83.48;99954.09;7297235;19;20308;-69
2023/12/11 09:17:55;;;;;;;;;;;;;;;12.57;85.99;99964.72;7305241;19;19923;-70
2023/12/11 09:20:22;;;;;;;;;;;;;;;12.64;86.48;99963.00;7297070;19;19926;-68
2023/12/11 09:22:49;;;;;;;;;;;;;;;12.64;85.83;99966.44;7298041;19;20292;-70
2023/12/11 09:25:17;;;;;;;;;;;;;;;12.67;84.38;99973.97;7309078;19;19926;-70
2023/12/11 09:27:45;;;;;;;;;;;;;;;12.67;83.46;99975.81;7307779;19;19926;-68
2023/12/11 09:30:14;;;;;;;;;;;;;;;12.70;83.91;99985.97;7303752;19;19974;-67
2023/12/11 09:32:41;;;;;;;;;;;;;;;12.70;82.74;99989.44;7307599;19;19926;-68
2023/12/11 09:35:10;;;;;;;;;;;;;;;12.69;82.35;99984.34;7305769;19;19951;-69
2023/12/11 09:37:37;;;;;;;;;;;;;;;12.77;84.22;99984.22;7309312;19;20687;-69
2023/12/11 09:40:08;;;;;;;;;;;;;;;12.79;83.91;99995.44;7311786;19;19919;-68
2023/12/11 09:42:40;;;;;;;;;;;;;;;12.80;83.20;100000.50;7300244;19;19962;-69
2023/12/11 09:45:10;;;;;;;;;;;;;;;12.79;83.57;100008.63;7301677;19;20289;-70
2023/12/11 09:47:46;;;;;;;;;;;;;;;12.71;82.39;100008.72;7298322;19;19943;-70
2023/12/11 09:50:17;;;;;;;;;;;;;;;12.67;83.06;100013.56;7292373;19;20917;-68
2023/12/11 09:52:45;;;;;;;;;;;;;;;12.66;83.86;100016.38;7309448;19;20002;-68
2023/12/11 09:55:12;;;;;;;;;;;;;;;12.64;82.78;100021.88;7307083;19;19958;-69
2023/12/11 09:57:40;;;;;;;;;;;;;;;12.57;82.28;100028.06;7311121;19;19922;-69
2023/12/11 10:00:09;;;;;;;;;;;;;;;12.53;82.72;100030.28;7315986;19;19922;-68
2023/12/11 10:02:38;;;;;;;;;;;;;;;12.54;83.15;100028.44;7301132;19;21803;-69
2023/12/11 10:05:09;;;;;;;;;;;;;;;12.55;83.49;100043.25;7313135;19;20558;-68
2023/12/11 10:07:45;;;;;;;;;;;;;;;12.56;83.81;100040.44;7299912;19;19934;-70
2023/12/11 10:10:21;;;;;;;;;;;;;;;12.57;83.40;100052.63;7297788;19;22198;-68
2023/12/11 10:12:48;;;;;;;;;;;;;;;12.62;83.03;100054.72;7300357;19;20352;-69
2023/12/11 10:15:20;;;;;;;;;;;;;;;12.60;82.60;100060.16;7298788;19;19925;-69
2023/12/11 10:18:08;;;;;;;;;;;;;;;12.58;81.93;100058.72;7310966;19;19923;-69
2023/12/11 10:20:36;;;;;;;;;;;;;;;12.50;82.25;100061.47;7318837;19;19922;-71
2023/12/11 10:23:14;;;;;;;;;;;;;;;12.50;81.77;100064.91;7320400;19;19974;-69
2023/12/11 10:25:43;;;;;;;;;;;;;;;12.49;82.02;100068.59;7320368;19;19925;-69
2023/12/11 10:28:11;;;;;;;;;;;;;;;12.49;82.13;100073.03;7305377;19;20834;-69
2023/12/11 10:30:53;;;;;;;;;;;;;;;12.45;82.34;100064.66;7318345;19;20400;-68
2023/12/11 10:33:21;;;;;;;;;;;;;;;12.41;81.42;100061.56;7309403;19;19934;-68
2023/12/11 10:35:48;;;;;;;;;;;;;;;12.43;82.03;100067.50;7295302;19;20475;-68
2023/12/11 10:38:23;;;;;;;;;;;;;;;12.44;81.91;100066.47;7312600;19;20489;-69
2023/12/11 10:40:51;;;;;;;;;;;;;;;12.47;81.61;100073.22;7303940;19;19978;-69
2023/12/11 10:43:19;;;;;;;;;;;;;;;12.49;81.20;100067.75;7301196;19;20268;-69
2023/12/11 10:45:51;;;;;;;;;;;;;;;12.52;81.22;100068.22;7305662;19;19919;-69
2023/12/11 10:48:20;;;;;;;;;;;;;;;12.60;82.63;100075.19;7302328;19;22598;-68
2023/12/11 10:50:49;;;;;;;;;;;;;;;12.65;81.42;100084.19;7300643;19;19926;-69
2023/12/11 10:53:17;;;;;;;;;;;;;;;12.68;80.70;100072.47;7294618;19;19914;-68
2023/12/11 10:55:46;;;;;;;;;;;;;;;12.72;80.39;100077.19;7290766;19;19934;-68
2023/12/11 10:58:13;;;;;;;;;;;;;;;12.71;80.25;100078.19;7301762;19;20551;-68
2023/12/11 11:00:41;;;;;;;;;;;;;;;12.74;80.56;100087.56;7287708;19;20144;-69
2023/12/11 11:03:11;;;;;;;;;;;;;;;12.75;80.65;100087.34;7297985;19;20154;-68
2023/12/11 11:05:41;;;;;;;;;;;;;;;12.75;78.57;100095.28;7291405;19;20301;-68
2023/12/11 11:08:20;;;;;;;;;;;;;;;12.76;79.75;100091.63;7290956;19;19919;-68
2023/12/11 11:10:51;;;;;;;;;;;;;;;12.79;79.22;100095.75;7301122;19;19922;-68
2023/12/11 11:13:20;;;;;;;;;;;;;;;12.80;78.98;100100.00;7300802;19;19942;-68
2023/12/11 11:15:54;;;;;;;;;;;;;;;12.82;79.33;100098.81;7284029;19;19930;-69
2023/12/11 11:18:21;;;;;;;;;;;;;;;12.82;78.77;100103.28;7292605;19;19957;-69
2023/12/11 11:21:17;;;;;;;;;;;;;;;12.86;78.50;100101.91;7306611;19;20215;-68
2023/12/11 11:23:48;;;;;;;;;;;;;;;12.89;77.88;100104.19;7312967;19;20002;-69
2023/12/11 11:26:35;;;;;;;;;;;;;;;12.97;78.59;100101.44;7308172;19;19926;-67
2023/12/11 11:29:03;;;;;;;;;;;;;;;13.01;77.24;100102.69;7285500;19;19923;-71
2023/12/11 11:31:48;;;;;;;;;;;;;;;13.08;76.63;100105.41;7295977;19;20003;-67
2023/12/11 11:34:23;;;;;;;;;;;;;;;13.17;75.43;100117.53;7289879;19;20269;-67
2023/12/11 11:36:51;;;;;;;;;;;;;;;13.21;75.36;100108.22;7287880;19;19922;-69
2023/12/11 11:39:20;;;;;;;;;;;;;;;13.23;74.64;100103.56;7300856;19;19926;-68
2023/12/11 11:41:49;;;;;;;;;;;;;;;13.28;74.41;100111.75;7280343;19;20693;-68
2023/12/11 11:44:17;;;;;;;;;;;;;;;13.34;73.94;100112.81;7305006;19;19923;-68
2023/12/11 11:46:55;;;;;;;;;;;;;;;13.32;73.78;100104.25;7300006;19;19952;-68
2023/12/11 11:49:24;;;;;;;;;;;;;;;13.31;74.21;100110.56;7292299;19;19935;-69
2023/12/11 11:51:52;;;;;;;;;;;;;;;13.29;74.02;100105.47;7295560;19;19960;-68
2023/12/11 11:54:23;;;;;;;;;;;;;;;13.30;74.06;100106.28;7304856;19;19949;-68
2023/12/11 11:56:52;;;;;;;;;;;;;;;13.30;74.80;100108.94;7317580;19;20253;-68
2023/12/11 11:59:19;;;;;;;;;;;;;;;13.30;75.28;100101.81;7315417;19;19918;-69
2023/12/11 12:01:52;;;;;;;;;;;;;;;13.25;75.30;100112.97;7307086;19;19922;-68
2023/12/11 12:04:32;;;;;;;;;;;;;;;13.22;76.00;100107.22;7285366;19;19965;-69
2023/12/11 12:07:01;;;;;;;;;;;;;;;13.23;75.73;100122.06;7311585;19;19919;-69
2023/12/11 12:09:29;;;;;;;;;;;;;;;13.25;76.90;100127.97;7310955;19;20110;-69
2023/12/11 12:12:00;;;;;;;;;;;;;;;13.24;76.18;100128.97;7294630;19;20419;-68
2023/12/11 12:14:27;;;;;;;;;;;;;;;13.30;76.58;100124.78;7288407;19;19993;-68
2023/12/11 12:16:55;;;;;;;;;;;;;;;13.30;75.32;100130.06;7293715;19;19927;-69
2023/12/11 12:19:31;;;;;;;;;;;;;;;13.31;76.00;100140.41;7295491;19;19919;-68
2023/12/11 12:22:02;;;;;;;;;;;;;;;13.36;76.01;100127.47;7284220;19;19918;-69
2023/12/11 12:24:37;;;;;;;;;;;;;;;13.41;75.66;100127.72;7279129;19;19926;-69
2023/12/11 12:27:09;;;;;;;;;;;;;;;13.42;74.98;100126.72;7297135;19;20014;-69
2023/12/11 12:29:36;;;;;;;;;;;;;;;13.44;74.09;100122.06;7283641;19;20041;-68
2023/12/11 12:32:04;;;;;;;;;;;;;;;13.43;74.10;100127.53;7273780;19;20285;-69
2023/12/11 12:34:34;;;;;;;;;;;;;;;13.42;72.08;100126.72;7275630;19;20419;-69
2023/12/11 12:37:03;;;;;;;;;;;;;;;13.42;71.79;100121.44;7297523;19;19925;-67
2023/12/11 12:39:30;;;;;;;;;;;;;;;13.43;71.87;100130.19;7287795;19;19930;-68
2023/12/11 12:42:04;;;;;;;;;;;;;;;13.43;71.43;100131.00;7280037;19;19919;-68
2023/12/11 12:44:39;;;;;;;;;;;;;;;13.44;71.60;100126.53;7300984;19;20486;-68
2023/12/11 12:47:08;;;;;;;;;;;;;;;13.42;69.55;100133.81;7294687;19;20146;-68
2023/12/11 12:49:35;;;;;;;;;;;;;;;13.39;69.91;100129.75;7284877;19;20799;-68
2023/12/11 12:52:03;;;;;;;;;;;;;;;13.40;70.94;100136.69;7284658;19;22335;-68